THY4902 LTAC-LTCG
Flight info
| Callsign | THY4902 |
|---|---|
| Flight time | 1h 7m |
| Altitude | 350 |
| Route | ILHAN UW71 CRM UM11 TEMEL |
| Aircraft | B738/M-SDE3/K |
Departure
| Time | 2026-05-04 08:02 |
|---|---|
| Airport | Esenboğa International Airport (LTAC) |
Arrival
| Time | 2026-05-04 09:10 |
|---|---|
| Airport | Trabzon International Airport (LTCG) |
| Time | Latitude | Longitude | Altitude | Speed | Heading |
|---|---|---|---|---|---|
| 2026-05-04 07:38 | 40.11657 | 32.99231 | 3125 ft | 0 kts | 156° |
| 2026-05-04 07:52 | 40.11670 | 32.99223 | 3125 ft | 2 kts | 156° |
| 2026-05-04 07:52 | 40.11683 | 32.99216 | 3125 ft | 2 kts | 156° |
| 2026-05-04 07:52 | 40.11697 | 32.99211 | 3125 ft | 2 kts | 182° |
| 2026-05-04 07:53 | 40.11711 | 32.99214 | 3125 ft | 1 kts | 201° |
| 2026-05-04 07:54 | 40.11736 | 32.99249 | 3126 ft | 0 kts | 249° |
| 2026-05-04 07:55 | 40.11734 | 32.99245 | 3126 ft | 2 kts | 248° |
| 2026-05-04 07:55 | 40.11721 | 32.99205 | 3125 ft | 2 kts | 257° |
| 2026-05-04 07:55 | 40.11722 | 32.99169 | 3124 ft | 4 kts | 281° |
| 2026-05-04 07:56 | 40.11737 | 32.99136 | 3124 ft | 4 kts | 306° |
| 2026-05-04 07:56 | 40.11763 | 32.99104 | 3123 ft | 5 kts | 317° |
| 2026-05-04 07:56 | 40.11794 | 32.99063 | 3122 ft | 6 kts | 309° |
| 2026-05-04 07:56 | 40.11801 | 32.99013 | 3121 ft | 6 kts | 243° |
| 2026-05-04 07:57 | 40.11768 | 32.98970 | 3120 ft | 7 kts | 216° |
| 2026-05-04 07:57 | 40.11724 | 32.98934 | 3120 ft | 7 kts | 220° |
| 2026-05-04 07:57 | 40.11680 | 32.98885 | 3119 ft | 8 kts | 218° |
| 2026-05-04 07:57 | 40.11631 | 32.98835 | 3118 ft | 9 kts | 216° |
| 2026-05-04 07:58 | 40.11574 | 32.98782 | 3117 ft | 10 kts | 213° |
| 2026-05-04 07:58 | 40.11515 | 32.98725 | 3115 ft | 10 kts | 213° |
| 2026-05-04 07:58 | 40.11450 | 32.98669 | 3114 ft | 11 kts | 214° |
| 2026-05-04 07:58 | 40.11420 | 32.98637 | 3114 ft | 3 kts | 217° |
| 2026-05-04 07:59 | 40.11399 | 32.98615 | 3113 ft | 4 kts | 217° |
| 2026-05-04 07:59 | 40.11372 | 32.98588 | 3113 ft | 3 kts | 228° |
| 2026-05-04 07:59 | 40.11356 | 32.98542 | 3112 ft | 6 kts | 250° |
| 2026-05-04 07:59 | 40.11354 | 32.98478 | 3111 ft | 7 kts | 273° |
| 2026-05-04 08:00 | 40.11370 | 32.98407 | 3109 ft | 8 kts | 300° |
| 2026-05-04 08:00 | 40.11402 | 32.98350 | 3108 ft | 4 kts | 7° |
| 2026-05-04 08:00 | 40.11433 | 32.98356 | 3108 ft | 4 kts | 6° |
| 2026-05-04 08:02 | 40.14607 | 33.01317 | 4298 ft | 190 kts | 36° |
| 2026-05-04 08:02 | 40.15699 | 33.02401 | 4922 ft | 205 kts | 36° |
| 2026-05-04 08:02 | 40.16906 | 33.03572 | 5364 ft | 227 kts | 34° |
| 2026-05-04 08:03 | 40.18238 | 33.04796 | 5964 ft | 243 kts | 35° |
| 2026-05-04 08:03 | 40.19443 | 33.06439 | 6538 ft | 261 kts | 58° |
| 2026-05-04 08:03 | 40.20274 | 33.08595 | 7130 ft | 277 kts | 65° |
| 2026-05-04 08:03 | 40.21068 | 33.10933 | 7879 ft | 285 kts | 65° |
| 2026-05-04 08:04 | 40.21913 | 33.13271 | 8707 ft | 289 kts | 63° |
| 2026-05-04 08:04 | 40.22810 | 33.15610 | 9540 ft | 293 kts | 62° |
| 2026-05-04 08:04 | 40.23755 | 33.18009 | 10366 ft | 298 kts | 62° |
| 2026-05-04 08:04 | 40.24708 | 33.20400 | 11258 ft | 299 kts | 62° |
| 2026-05-04 08:05 | 40.25665 | 33.22791 | 12034 ft | 303 kts | 62° |
| 2026-05-04 08:05 | 40.26637 | 33.25223 | 12830 ft | 306 kts | 61° |
| 2026-05-04 08:05 | 40.27620 | 33.27698 | 13642 ft | 308 kts | 61° |
| 2026-05-04 08:05 | 40.28602 | 33.30170 | 14446 ft | 309 kts | 62° |
| 2026-05-04 08:06 | 40.29587 | 33.32649 | 15200 ft | 311 kts | 61° |
| 2026-05-04 08:06 | 40.30579 | 33.35155 | 15969 ft | 311 kts | 60° |
| 2026-05-04 08:06 | 40.31565 | 33.37661 | 16679 ft | 313 kts | 60° |
| 2026-05-04 08:06 | 40.32566 | 33.40194 | 17393 ft | 314 kts | 60° |
| 2026-05-04 08:08 | 40.39667 | 33.58217 | 21935 ft | 327 kts | 60° |
| 2026-05-04 08:08 | 40.40713 | 33.60861 | 22570 ft | 328 kts | 60° |
| 2026-05-04 08:10 | 40.47659 | 33.83252 | 26577 ft | 340 kts | 71° |
| 2026-05-04 08:11 | 40.48380 | 33.86228 | 26855 ft | 346 kts | 71° |
| 2026-05-04 08:11 | 40.49858 | 33.92256 | 27702 ft | 347 kts | 71° |
| 2026-05-04 08:11 | 40.50610 | 33.95249 | 28027 ft | 350 kts | 70° |
| 2026-05-04 08:12 | 40.51471 | 33.98258 | 28327 ft | 354 kts | 68° |
| 2026-05-04 08:12 | 40.52396 | 34.01222 | 28834 ft | 350 kts | 67° |
| 2026-05-04 08:12 | 40.53354 | 34.04218 | 29048 ft | 357 kts | 67° |
| 2026-05-04 08:12 | 40.54306 | 34.07208 | 29428 ft | 358 kts | 67° |
| 2026-05-04 08:13 | 40.55249 | 34.10208 | 29729 ft | 360 kts | 68° |
| 2026-05-04 08:13 | 40.56204 | 34.13281 | 30079 ft | 361 kts | 68° |
| 2026-05-04 08:13 | 40.57149 | 34.16338 | 30245 ft | 368 kts | 68° |
| 2026-05-04 08:13 | 40.58107 | 34.19447 | 30627 ft | 368 kts | 69° |
| 2026-05-04 08:14 | 40.59083 | 34.22622 | 30818 ft | 373 kts | 68° |
| 2026-05-04 08:14 | 40.60048 | 34.25769 | 31129 ft | 375 kts | 69° |
| 2026-05-04 08:14 | 40.61030 | 34.28972 | 31342 ft | 379 kts | 69° |
| 2026-05-04 08:16 | 40.68090 | 34.52163 | 32966 ft | 399 kts | 70° |
| 2026-05-04 08:16 | 40.69134 | 34.55617 | 33137 ft | 404 kts | 69° |
| 2026-05-04 08:16 | 40.70168 | 34.59039 | 33337 ft | 406 kts | 69° |
| 2026-05-04 08:17 | 40.71228 | 34.62542 | 33574 ft | 409 kts | 69° |
| 2026-05-04 08:17 | 40.72274 | 34.66002 | 33796 ft | 411 kts | 70° |
| 2026-05-04 08:17 | 40.73339 | 34.69534 | 34003 ft | 414 kts | 70° |
| 2026-05-04 08:17 | 40.74407 | 34.73080 | 34201 ft | 418 kts | 70° |
| 2026-05-04 08:19 | 40.81839 | 34.98315 | 35930 ft | 425 kts | 71° |
| 2026-05-04 08:19 | 40.82898 | 35.01942 | 36160 ft | 427 kts | 71° |
| 2026-05-04 08:20 | 40.83971 | 35.05621 | 36401 ft | 428 kts | 71° |
| 2026-05-04 08:20 | 40.85035 | 35.09270 | 36640 ft | 428 kts | 71° |
| 2026-05-04 08:20 | 40.86104 | 35.12940 | 36775 ft | 431 kts | 71° |
| 2026-05-04 08:20 | 40.87185 | 35.16647 | 36785 ft | 436 kts | 71° |
| 2026-05-04 08:21 | 40.89367 | 35.24176 | 36785 ft | 447 kts | 71° |
| 2026-05-04 08:21 | 40.91592 | 35.31874 | 36788 ft | 448 kts | 71° |
| 2026-05-04 08:22 | 40.93813 | 35.39561 | 36799 ft | 447 kts | 71° |
| 2026-05-04 08:24 | 41.02608 | 35.70223 | 36797 ft | 448 kts | 72° |
| 2026-05-04 08:24 | 41.04845 | 35.77898 | 36776 ft | 447 kts | 71° |
| 2026-05-04 08:25 | 41.07110 | 35.85580 | 36776 ft | 447 kts | 71° |
| 2026-05-04 08:25 | 41.09344 | 35.93181 | 36769 ft | 446 kts | 71° |
| 2026-05-04 08:27 | 41.17999 | 36.23983 | 36783 ft | 447 kts | 72° |
| 2026-05-04 08:28 | 41.20142 | 36.31682 | 36778 ft | 447 kts | 72° |
| 2026-05-04 08:28 | 41.22285 | 36.39393 | 36781 ft | 447 kts | 72° |
| 2026-05-04 08:29 | 41.24412 | 36.47080 | 36780 ft | 445 kts | 72° |
| 2026-05-04 08:31 | 41.24854 | 36.79135 | 36779 ft | 438 kts | 99° |
| 2026-05-04 08:33 | 41.22324 | 37.11211 | 36793 ft | 438 kts | 98° |
| 2026-05-04 08:35 | 41.19898 | 37.43272 | 36792 ft | 436 kts | 99° |
| 2026-05-04 08:35 | 41.19306 | 37.51253 | 36801 ft | 436 kts | 99° |
| 2026-05-04 08:37 | 41.17257 | 37.79220 | 36830 ft | 438 kts | 101° |
| 2026-05-04 08:38 | 41.16556 | 37.87216 | 36825 ft | 434 kts | 101° |
| 2026-05-04 08:38 | 41.15884 | 37.95147 | 36864 ft | 436 kts | 100° |
| 2026-05-04 08:40 | 41.13641 | 38.23018 | 35952 ft | 436 kts | 100° |
| 2026-05-04 08:40 | 41.13313 | 38.26998 | 35430 ft | 433 kts | 100° |
| 2026-05-04 08:40 | 41.12988 | 38.30952 | 34872 ft | 433 kts | 100° |
| 2026-05-04 08:41 | 41.12663 | 38.34891 | 34183 ft | 435 kts | 100° |
| 2026-05-04 08:41 | 41.12338 | 38.38834 | 33690 ft | 432 kts | 100° |
| 2026-05-04 08:41 | 41.12013 | 38.42786 | 33266 ft | 426 kts | 100° |
| 2026-05-04 08:41 | 41.11696 | 38.46634 | 32806 ft | 422 kts | 100° |
| 2026-05-04 08:42 | 41.11382 | 38.50442 | 32373 ft | 417 kts | 101° |
| 2026-05-04 08:42 | 41.11063 | 38.54274 | 31945 ft | 412 kts | 100° |
| 2026-05-04 08:42 | 41.10752 | 38.57988 | 31536 ft | 406 kts | 101° |
| 2026-05-04 08:42 | 41.10442 | 38.61656 | 31027 ft | 403 kts | 101° |
| 2026-05-04 08:43 | 41.10128 | 38.65304 | 30550 ft | 399 kts | 102° |
| 2026-05-04 08:43 | 41.09809 | 38.68974 | 30006 ft | 397 kts | 102° |
| 2026-05-04 08:43 | 41.09494 | 38.72548 | 29588 ft | 392 kts | 102° |
| 2026-05-04 08:43 | 41.09174 | 38.76121 | 29073 ft | 389 kts | 102° |
| 2026-05-04 08:44 | 41.08860 | 38.79601 | 28606 ft | 385 kts | 102° |
| 2026-05-04 08:44 | 41.08539 | 38.83133 | 28140 ft | 380 kts | 102° |
| 2026-05-04 08:46 | 41.06383 | 39.06689 | 24724 ft | 358 kts | 103° |
| 2026-05-04 08:46 | 41.06079 | 39.09950 | 24199 ft | 356 kts | 103° |
| 2026-05-04 08:46 | 41.05786 | 39.13183 | 23744 ft | 353 kts | 102° |
| 2026-05-04 08:46 | 41.05632 | 39.16400 | 23166 ft | 355 kts | 98° |
| 2026-05-04 08:47 | 41.05615 | 39.19647 | 22660 ft | 353 kts | 96° |
| 2026-05-04 08:47 | 41.05651 | 39.22880 | 22159 ft | 350 kts | 96° |
| 2026-05-04 08:47 | 41.05693 | 39.26054 | 21665 ft | 347 kts | 96° |
| 2026-05-04 08:47 | 41.05727 | 39.29243 | 21116 ft | 345 kts | 96° |
| 2026-05-04 08:48 | 41.05747 | 39.32377 | 20567 ft | 343 kts | 96° |
| 2026-05-04 08:48 | 41.05760 | 39.35525 | 20100 ft | 339 kts | 97° |
| 2026-05-04 08:48 | 41.05765 | 39.38613 | 19534 ft | 338 kts | 97° |
| 2026-05-04 08:48 | 41.05765 | 39.41685 | 19079 ft | 334 kts | 96° |
| 2026-05-04 08:49 | 41.05764 | 39.44768 | 18506 ft | 333 kts | 96° |
| 2026-05-04 08:50 | 41.05741 | 39.62738 | 15338 ft | 320 kts | 96° |
| 2026-05-04 08:50 | 41.05735 | 39.65638 | 14787 ft | 317 kts | 97° |
| 2026-05-04 08:51 | 41.05731 | 39.68543 | 14339 ft | 314 kts | 97° |
| 2026-05-04 08:51 | 41.05724 | 39.71382 | 13825 ft | 313 kts | 97° |
| 2026-05-04 08:51 | 41.05716 | 39.74258 | 13293 ft | 313 kts | 97° |
| 2026-05-04 08:51 | 41.05706 | 39.77130 | 12831 ft | 310 kts | 96° |
| 2026-05-04 08:52 | 41.05700 | 39.79971 | 12331 ft | 308 kts | 96° |
| 2026-05-04 08:52 | 41.05696 | 39.82726 | 12162 ft | 296 kts | 96° |
| 2026-05-04 08:52 | 41.05695 | 39.85430 | 11979 ft | 286 kts | 96° |
| 2026-05-04 08:52 | 41.05689 | 39.88002 | 11772 ft | 277 kts | 97° |
| 2026-05-04 08:53 | 41.05677 | 39.90551 | 11365 ft | 277 kts | 96° |
| 2026-05-04 08:54 | 41.04600 | 40.07680 | 8594 ft | 261 kts | 108° |
| 2026-05-04 08:55 | 41.04501 | 40.10091 | 8144 ft | 268 kts | 84° |
| 2026-05-04 08:55 | 41.04955 | 40.12473 | 7845 ft | 263 kts | 77° |
| 2026-05-04 08:55 | 41.05500 | 40.14693 | 7733 ft | 248 kts | 76° |
| 2026-05-04 08:55 | 41.06032 | 40.16824 | 7583 ft | 236 kts | 77° |
| 2026-05-04 08:57 | 41.08122 | 40.28896 | 6072 ft | 173 kts | 129° |
| 2026-05-04 09:01 | 40.93905 | 40.23605 | 4606 ft | 173 kts | 208° |
| 2026-05-04 09:01 | 40.92852 | 40.22828 | 4609 ft | 174 kts | 208° |
| 2026-05-04 09:01 | 40.91798 | 40.21994 | 4611 ft | 175 kts | 221° |
| 2026-05-04 09:01 | 40.91082 | 40.20710 | 4626 ft | 177 kts | 239° |
| 2026-05-04 09:02 | 40.90498 | 40.19288 | 4597 ft | 177 kts | 239° |
| 2026-05-04 09:02 | 40.89899 | 40.17861 | 4526 ft | 175 kts | 239° |
| 2026-05-04 09:02 | 40.89312 | 40.16459 | 4471 ft | 175 kts | 240° |
| 2026-05-04 09:02 | 40.88720 | 40.15060 | 4438 ft | 175 kts | 239° |
| 2026-05-04 09:03 | 40.88245 | 40.13599 | 4374 ft | 176 kts | 262° |
| 2026-05-04 09:03 | 40.88492 | 40.12039 | 4278 ft | 178 kts | 302° |
| 2026-05-04 09:03 | 40.89293 | 40.10796 | 4248 ft | 176 kts | 306° |
| 2026-05-04 09:03 | 40.89927 | 40.09409 | 4240 ft | 177 kts | 294° |
| 2026-05-04 09:04 | 40.90431 | 40.07939 | 4198 ft | 175 kts | 292° |
| 2026-05-04 09:04 | 40.90918 | 40.06441 | 4098 ft | 175 kts | 291° |
| 2026-05-04 09:04 | 40.91381 | 40.04982 | 3968 ft | 169 kts | 291° |
| 2026-05-04 09:04 | 40.91830 | 40.03554 | 3888 ft | 170 kts | 292° |
| 2026-05-04 09:05 | 40.92289 | 40.02092 | 3812 ft | 171 kts | 291° |
| 2026-05-04 09:05 | 40.92736 | 40.00664 | 3707 ft | 170 kts | 292° |
| 2026-05-04 09:05 | 40.93191 | 39.99211 | 3523 ft | 169 kts | 292° |
| 2026-05-04 09:05 | 40.93638 | 39.97789 | 3289 ft | 167 kts | 293° |
| 2026-05-04 09:06 | 40.94080 | 39.96379 | 3026 ft | 166 kts | 293° |
| 2026-05-04 09:07 | 40.96699 | 39.87938 | 1130 ft | 134 kts | 292° |
| 2026-05-04 09:08 | 40.97024 | 39.86790 | 886 ft | 131 kts | 293° |
| 2026-05-04 09:08 | 40.97390 | 39.85685 | 747 ft | 132 kts | 296° |
| 2026-05-04 09:08 | 40.97757 | 39.84575 | 693 ft | 130 kts | 294° |
| 2026-05-04 09:08 | 40.98113 | 39.83467 | 591 ft | 131 kts | 296° |
| 2026-05-04 09:09 | 40.98461 | 39.82365 | 469 ft | 131 kts | 291° |
| 2026-05-04 09:09 | 40.98797 | 39.81231 | 289 ft | 132 kts | 292° |
| 2026-05-04 09:09 | 40.99142 | 39.80115 | 122 ft | 127 kts | 295° |
| 2026-05-04 09:09 | 40.99479 | 39.79137 | 113 ft | 106 kts | 292° |
| 2026-05-04 09:10 | 40.99672 | 39.78488 | 113 ft | 33 kts | 294° |
| 2026-05-04 09:10 | 40.99708 | 39.78362 | 113 ft | 0 kts | 278° |
| 2026-05-04 09:10 | 40.99709 | 39.78352 | 113 ft | 1 kts | 279° |
| 2026-05-04 09:10 | 40.99710 | 39.78331 | 113 ft | 2 kts | 267° |
| 2026-05-04 09:11 | 40.99704 | 39.78305 | 113 ft | 3 kts | 246° |
| 2026-05-04 09:11 | 40.99696 | 39.78278 | 113 ft | 3 kts | 253° |
| 2026-05-04 09:11 | 40.99692 | 39.78230 | 113 ft | 8 kts | 274° |
| 2026-05-04 09:11 | 40.99678 | 39.78159 | 113 ft | 7 kts | 227° |
| 2026-05-04 09:12 | 40.99635 | 39.78123 | 113 ft | 6 kts | 208° |
| 2026-05-04 09:12 | 40.99597 | 39.78099 | 113 ft | 2 kts | 206° |
| 2026-05-04 09:14 | 40.99568 | 39.78083 | 113 ft | 0 kts | 201° |